sensor_id;sensor_type;location;lat;lon;timestamp;P1;durP1;ratioP1;P2;durP2;ratioP2
56629;SDS011;42502;40.732;-74.254;2023-02-24T00:00:13;63.75;;;4.65;;
56629;SDS011;42502;40.732;-74.254;2023-02-24T00:02:31;57.95;;;4.20;;
56629;SDS011;42502;40.732;-74.254;2023-02-24T00:04:33;71.25;;;5.30;;
56629;SDS011;42502;40.732;-74.254;2023-02-24T00:06:39;68.55;;;4.65;;
56629;SDS011;42502;40.732;-74.254;2023-02-24T00:08:42;56.30;;;4.55;;
56629;SDS011;42502;40.732;-74.254;2023-02-24T00:10:43;50.60;;;4.13;;
56629;SDS011;42502;40.732;-74.254;2023-02-24T00:12:47;55.40;;;5.15;;
56629;SDS011;42502;40.732;-74.254;2023-02-24T00:14:48;53.35;;;5.13;;
56629;SDS011;42502;40.732;-74.254;2023-02-24T00:16:49;51.30;;;4.43;;
56629;SDS011;42502;40.732;-74.254;2023-02-24T00:18:52;46.25;;;4.32;;
56629;SDS011;42502;40.732;-74.254;2023-02-24T00:20:53;43.08;;;3.88;;
56629;SDS011;42502;40.732;-74.254;2023-02-24T00:22:57;41.40;;;3.20;;
56629;SDS011;42502;40.732;-74.254;2023-02-24T00:24:59;40.45;;;3.63;;
56629;SDS011;42502;40.732;-74.254;2023-02-24T00:27:03;44.47;;;3.70;;
56629;SDS011;42502;40.732;-74.254;2023-02-24T00:29:11;45.15;;;3.35;;
56629;SDS011;42502;40.732;-74.254;2023-02-24T00:31:16;34.88;;;2.97;;
56629;SDS011;42502;40.732;-74.254;2023-02-24T00:33:18;36.20;;;2.92;;
56629;SDS011;42502;40.732;-74.254;2023-02-24T00:35:22;43.47;;;3.33;;
56629;SDS011;42502;40.732;-74.254;2023-02-24T00:37:26;40.35;;;2.80;;
56629;SDS011;42502;40.732;-74.254;2023-02-24T00:39:28;35.55;;;3.08;;
56629;SDS011;42502;40.732;-74.254;2023-02-24T00:41:30;24.67;;;2.30;;
56629;SDS011;42502;40.732;-74.254;2023-02-24T00:43:31;41.38;;;3.00;;
56629;SDS011;42502;40.732;-74.254;2023-02-24T00:45:36;37.78;;;2.78;;
56629;SDS011;42502;40.732;-74.254;2023-02-24T00:47:38;31.23;;;2.45;;
56629;SDS011;42502;40.732;-74.254;2023-02-24T00:49:39;30.40;;;2.90;;
56629;SDS011;42502;40.732;-74.254;2023-02-24T00:51:45;32.63;;;2.55;;
56629;SDS011;42502;40.732;-74.254;2023-02-24T00:53:49;35.55;;;2.30;;
56629;SDS011;42502;40.732;-74.254;2023-02-24T00:55:57;40.85;;;2.50;;
56629;SDS011;42502;40.732;-74.254;2023-02-24T00:57:59;40.10;;;2.53;;
56629;SDS011;42502;40.732;-74.254;2023-02-24T01:00:00;32.42;;;3.83;;
56629;SDS011;42502;40.732;-74.254;2023-02-24T01:02:01;34.33;;;2.70;;
56629;SDS011;42502;40.732;-74.254;2023-02-24T01:04:06;42.70;;;3.00;;
56629;SDS011;42502;40.732;-74.254;2023-02-24T01:06:11;40.30;;;3.35;;
56629;SDS011;42502;40.732;-74.254;2023-02-24T01:08:12;31.42;;;2.20;;
56629;SDS011;42502;40.732;-74.254;2023-02-24T01:10:20;45.88;;;3.53;;
56629;SDS011;42502;40.732;-74.254;2023-02-24T01:12:22;23.60;;;1.90;;
56629;SDS011;42502;40.732;-74.254;2023-02-24T01:14:49;38.72;;;3.63;;
56629;SDS011;42502;40.732;-74.254;2023-02-24T01:16:52;24.13;;;2.30;;
56629;SDS011;42502;40.732;-74.254;2023-02-24T01:18:53;37.80;;;2.63;;
56629;SDS011;42502;40.732;-74.254;2023-02-24T01:20:59;33.28;;;2.60;;
56629;SDS011;42502;40.732;-74.254;2023-02-24T01:23:00;36.70;;;2.58;;
56629;SDS011;42502;40.732;-74.254;2023-02-24T01:25:02;35.30;;;2.65;;
56629;SDS011;42502;40.732;-74.254;2023-02-24T01:27:07;34.90;;;2.97;;
56629;SDS011;42502;40.732;-74.254;2023-02-24T01:29:09;46.25;;;3.40;;
56629;SDS011;42502;40.732;-74.254;2023-02-24T01:31:10;37.38;;;2.70;;
56629;SDS011;42502;40.732;-74.254;2023-02-24T01:33:11;27.77;;;2.30;;
56629;SDS011;42502;40.732;-74.254;2023-02-24T01:35:13;34.53;;;2.30;;
56629;SDS011;42502;40.732;-74.254;2023-02-24T01:37:14;26.60;;;1.90;;
56629;SDS011;42502;40.732;-74.254;2023-02-24T01:39:15;19.75;;;2.33;;
56629;SDS011;42502;40.732;-74.254;2023-02-24T01:41:20;30.13;;;2.10;;
56629;SDS011;42502;40.732;-74.254;2023-02-24T01:43:22;27.60;;;1.77;;
56629;SDS011;42502;40.732;-74.254;2023-02-24T01:45:25;31.55;;;2.10;;
56629;SDS011;42502;40.732;-74.254;2023-02-24T01:47:30;35.00;;;2.38;;
56629;SDS011;42502;40.732;-74.254;2023-02-24T01:49:35;33.10;;;2.28;;
56629;SDS011;42502;40.732;-74.254;2023-02-24T01:51:42;27.40;;;2.38;;
56629;SDS011;42502;40.732;-74.254;2023-02-24T01:53:46;26.92;;;1.88;;
56629;SDS011;42502;40.732;-74.254;2023-02-24T01:55:48;23.15;;;2.00;;
56629;SDS011;42502;40.732;-74.254;2023-02-24T01:57:50;24.65;;;2.22;;
56629;SDS011;42502;40.732;-74.254;2023-02-24T01:59:53;29.48;;;2.22;;
56629;SDS011;42502;40.732;-74.254;2023-02-24T02:02:02;30.48;;;2.38;;
56629;SDS011;42502;40.732;-74.254;2023-02-24T02:04:11;19.00;;;1.60;;
56629;SDS011;42502;40.732;-74.254;2023-02-24T02:06:19;20.63;;;1.98;;
56629;SDS011;42502;40.732;-74.254;2023-02-24T02:08:21;27.05;;;1.70;;
56629;SDS011;42502;40.732;-74.254;2023-02-24T02:10:25;22.57;;;1.60;;
56629;SDS011;42502;40.732;-74.254;2023-02-24T02:12:28;24.40;;;2.10;;
56629;SDS011;42502;40.732;-74.254;2023-02-24T02:14:40;19.52;;;2.45;;
56629;SDS011;42502;40.732;-74.254;2023-02-24T02:17:05;20.85;;;1.60;;
56629;SDS011;42502;40.732;-74.254;2023-02-24T02:21:55;16.38;;;1.17;;
56629;SDS011;42502;40.732;-74.254;2023-02-24T02:24:16;22.65;;;2.47;;
56629;SDS011;42502;40.732;-74.254;2023-02-24T02:29:03;26.20;;;1.40;;
56629;SDS011;42502;40.732;-74.254;2023-02-24T02:35:56;15.20;;;1.08;;
56629;SDS011;42502;40.732;-74.254;2023-02-24T02:38:29;15.70;;;1.00;;
56629;SDS011;42502;40.732;-74.254;2023-02-24T02:40:40;13.05;;;0.95;;
56629;SDS011;42502;40.732;-74.254;2023-02-24T02:47:12;12.73;;;1.13;;
56629;SDS011;42502;40.732;-74.254;2023-02-24T02:51:09;11.02;;;1.02;;
56629;SDS011;42502;40.732;-74.254;2023-02-24T02:53:26;20.85;;;1.35;;
56629;SDS011;42502;40.732;-74.254;2023-02-24T02:55:43;13.40;;;1.15;;
56629;SDS011;42502;40.732;-74.254;2023-02-24T02:57:48;16.50;;;1.00;;
56629;SDS011;42502;40.732;-74.254;2023-02-24T03:01:57;13.13;;;1.02;;
56629;SDS011;42502;40.732;-74.254;2023-02-24T03:04:12;10.95;;;0.90;;
56629;SDS011;42502;40.732;-74.254;2023-02-24T03:08:27;8.65;;;0.80;;
56629;SDS011;42502;40.732;-74.254;2023-02-24T03:10:30;11.50;;;0.80;;
56629;SDS011;42502;40.732;-74.254;2023-02-24T03:12:33;12.60;;;0.70;;
56629;SDS011;42502;40.732;-74.254;2023-02-24T03:14:38;9.50;;;0.70;;
56629;SDS011;42502;40.732;-74.254;2023-02-24T03:16:45;9.13;;;0.93;;
56629;SDS011;42502;40.732;-74.254;2023-02-24T03:18:49;10.57;;;0.98;;
56629;SDS011;42502;40.732;-74.254;2023-02-24T03:21:00;9.13;;;0.80;;
56629;SDS011;42502;40.732;-74.254;2023-02-24T03:23:11;7.10;;;0.75;;
56629;SDS011;42502;40.732;-74.254;2023-02-24T03:25:21;8.13;;;0.82;;
56629;SDS011;42502;40.732;-74.254;2023-02-24T03:27:31;9.30;;;0.80;;
56629;SDS011;42502;40.732;-74.254;2023-02-24T03:32:07;5.88;;;0.70;;
56629;SDS011;42502;40.732;-74.254;2023-02-24T03:34:18;5.68;;;0.80;;
56629;SDS011;42502;40.732;-74.254;2023-02-24T03:36:29;3.70;;;0.60;;
56629;SDS011;42502;40.732;-74.254;2023-02-24T03:38:31;3.75;;;0.73;;
56629;SDS011;42502;40.732;-74.254;2023-02-24T03:40:37;4.75;;;0.75;;
56629;SDS011;42502;40.732;-74.254;2023-02-24T03:42:40;6.78;;;0.70;;
56629;SDS011;42502;40.732;-74.254;2023-02-24T03:44:50;8.60;;;0.57;;
56629;SDS011;42502;40.732;-74.254;2023-02-24T03:46:57;7.28;;;0.70;;
56629;SDS011;42502;40.732;-74.254;2023-02-24T03:49:08;4.97;;;0.70;;
56629;SDS011;42502;40.732;-74.254;2023-02-24T03:51:16;4.43;;;0.70;;
56629;SDS011;42502;40.732;-74.254;2023-02-24T03:58:16;5.20;;;0.50;;
56629;SDS011;42502;40.732;-74.254;2023-02-24T04:00:30;2.17;;;0.50;;
56629;SDS011;42502;40.732;-74.254;2023-02-24T04:02:37;5.10;;;0.60;;
56629;SDS011;42502;40.732;-74.254;2023-02-24T04:04:41;2.47;;;0.40;;
56629;SDS011;42502;40.732;-74.254;2023-02-24T04:07:11;4.65;;;0.70;;
56629;SDS011;42502;40.732;-74.254;2023-02-24T04:14:42;3.83;;;0.60;;
56629;SDS011;42502;40.732;-74.254;2023-02-24T04:18:46;4.35;;;0.50;;
56629;SDS011;42502;40.732;-74.254;2023-02-24T04:20:50;3.90;;;0.50;;
56629;SDS011;42502;40.732;-74.254;2023-02-24T04:22:53;5.93;;;0.50;;
56629;SDS011;42502;40.732;-74.254;2023-02-24T04:24:58;3.33;;;0.50;;
56629;SDS011;42502;40.732;-74.254;2023-02-24T04:27:01;4.53;;;0.50;;
56629;SDS011;42502;40.732;-74.254;2023-02-24T04:29:06;4.75;;;0.50;;
56629;SDS011;42502;40.732;-74.254;2023-02-24T04:31:10;2.70;;;0.50;;
56629;SDS011;42502;40.732;-74.254;2023-02-24T04:33:16;3.17;;;0.60;;
56629;SDS011;42502;40.732;-74.254;2023-02-24T04:35:19;3.40;;;0.50;;
56629;SDS011;42502;40.732;-74.254;2023-02-24T04:37:23;1.35;;;0.50;;
56629;SDS011;42502;40.732;-74.254;2023-02-24T04:39:24;1.20;;;0.40;;
56629;SDS011;42502;40.732;-74.254;2023-02-24T04:41:25;2.28;;;0.50;;
56629;SDS011;42502;40.732;-74.254;2023-02-24T04:43:26;5.45;;;0.70;;
56629;SDS011;42502;40.732;-74.254;2023-02-24T04:45:29;1.80;;;0.47;;
56629;SDS011;42502;40.732;-74.254;2023-02-24T04:47:31;2.63;;;0.40;;
56629;SDS011;42502;40.732;-74.254;2023-02-24T04:49:31;1.88;;;0.60;;
56629;SDS011;42502;40.732;-74.254;2023-02-24T04:51:35;2.00;;;0.50;;
56629;SDS011;42502;40.732;-74.254;2023-02-24T04:53:41;0.82;;;0.40;;
56629;SDS011;42502;40.732;-74.254;2023-02-24T04:55:43;1.15;;;0.50;;
56629;SDS011;42502;40.732;-74.254;2023-02-24T04:57:51;4.18;;;0.55;;
56629;SDS011;42502;40.732;-74.254;2023-02-24T04:59:56;1.35;;;0.50;;
56629;SDS011;42502;40.732;-74.254;2023-02-24T05:01:58;2.45;;;0.50;;
56629;SDS011;42502;40.732;-74.254;2023-02-24T05:04:00;2.28;;;0.50;;
56629;SDS011;42502;40.732;-74.254;2023-02-24T05:06:02;2.45;;;0.35;;
56629;SDS011;42502;40.732;-74.254;2023-02-24T05:08:06;0.98;;;0.40;;
56629;SDS011;42502;40.732;-74.254;2023-02-24T05:10:09;1.67;;;0.40;;
56629;SDS011;42502;40.732;-74.254;2023-02-24T05:12:10;1.58;;;0.43;;
56629;SDS011;42502;40.732;-74.254;2023-02-24T05:14:12;2.25;;;0.57;;
56629;SDS011;42502;40.732;-74.254;2023-02-24T05:16:15;0.90;;;0.40;;
56629;SDS011;42502;40.732;-74.254;2023-02-24T05:18:19;1.08;;;0.50;;
56629;SDS011;42502;40.732;-74.254;2023-02-24T05:20:22;1.17;;;0.45;;
56629;SDS011;42502;40.732;-74.254;2023-02-24T05:22:41;1.30;;;0.45;;
56629;SDS011;42502;40.732;-74.254;2023-02-24T05:24:42;1.95;;;0.30;;
56629;SDS011;42502;40.732;-74.254;2023-02-24T05:26:47;1.48;;;0.38;;
56629;SDS011;42502;40.732;-74.254;2023-02-24T05:28:48;1.15;;;0.40;;
56629;SDS011;42502;40.732;-74.254;2023-02-24T05:30:51;2.10;;;0.40;;
56629;SDS011;42502;40.732;-74.254;2023-02-24T05:32:58;0.95;;;0.40;;
56629;SDS011;42502;40.732;-74.254;2023-02-24T05:34:59;1.02;;;0.40;;
56629;SDS011;42502;40.732;-74.254;2023-02-24T05:37:00;1.20;;;0.40;;
56629;SDS011;42502;40.732;-74.254;2023-02-24T05:39:12;0.85;;;0.40;;
56629;SDS011;42502;40.732;-74.254;2023-02-24T05:41:18;1.70;;;0.40;;
56629;SDS011;42502;40.732;-74.254;2023-02-24T05:43:20;1.20;;;0.50;;
56629;SDS011;42502;40.732;-74.254;2023-02-24T05:45:21;0.52;;;0.40;;
56629;SDS011;42502;40.732;-74.254;2023-02-24T05:47:22;0.68;;;0.40;;
56629;SDS011;42502;40.732;-74.254;2023-02-24T05:49:26;3.63;;;0.50;;
56629;SDS011;42502;40.732;-74.254;2023-02-24T05:53:34;1.00;;;0.30;;
56629;SDS011;42502;40.732;-74.254;2023-02-24T05:55:35;0.80;;;0.30;;
56629;SDS011;42502;40.732;-74.254;2023-02-24T05:57:36;0.80;;;0.40;;
56629;SDS011;42502;40.732;-74.254;2023-02-24T05:59:38;0.50;;;0.32;;
56629;SDS011;42502;40.732;-74.254;2023-02-24T06:01:40;0.57;;;0.40;;
56629;SDS011;42502;40.732;-74.254;2023-02-24T06:03:44;0.63;;;0.40;;
56629;SDS011;42502;40.732;-74.254;2023-02-24T06:05:52;0.60;;;0.35;;
56629;SDS011;42502;40.732;-74.254;2023-02-24T06:07:54;1.05;;;0.40;;
56629;SDS011;42502;40.732;-74.254;2023-02-24T06:10:03;0.40;;;0.40;;
56629;SDS011;42502;40.732;-74.254;2023-02-24T06:12:09;1.20;;;0.30;;
56629;SDS011;42502;40.732;-74.254;2023-02-24T06:14:13;0.50;;;0.40;;
56629;SDS011;42502;40.732;-74.254;2023-02-24T06:16:15;1.63;;;0.40;;
56629;SDS011;42502;40.732;-74.254;2023-02-24T06:18:17;0.57;;;0.47;;
56629;SDS011;42502;40.732;-74.254;2023-02-24T06:20:18;0.70;;;0.47;;
56629;SDS011;42502;40.732;-74.254;2023-02-24T06:22:22;0.95;;;0.40;;
56629;SDS011;42502;40.732;-74.254;2023-02-24T06:24:24;0.50;;;0.30;;
56629;SDS011;42502;40.732;-74.254;2023-02-24T06:26:26;0.45;;;0.35;;
56629;SDS011;42502;40.732;-74.254;2023-02-24T06:28:32;0.50;;;0.30;;
56629;SDS011;42502;40.732;-74.254;2023-02-24T06:30:33;0.57;;;0.40;;
56629;SDS011;42502;40.732;-74.254;2023-02-24T06:32:34;0.93;;;0.30;;
56629;SDS011;42502;40.732;-74.254;2023-02-24T06:34:38;0.65;;;0.40;;
56629;SDS011;42502;40.732;-74.254;2023-02-24T06:36:40;0.77;;;0.30;;
56629;SDS011;42502;40.732;-74.254;2023-02-24T06:38:42;0.30;;;0.30;;
56629;SDS011;42502;40.732;-74.254;2023-02-24T06:40:43;0.68;;;0.40;;
56629;SDS011;42502;40.732;-74.254;2023-02-24T06:42:44;1.60;;;0.40;;
56629;SDS011;42502;40.732;-74.254;2023-02-24T06:44:49;1.00;;;0.35;;
56629;SDS011;42502;40.732;-74.254;2023-02-24T06:46:50;2.03;;;0.30;;
56629;SDS011;42502;40.732;-74.254;2023-02-24T06:48:51;0.80;;;0.40;;
56629;SDS011;42502;40.732;-74.254;2023-02-24T06:50:52;1.02;;;0.40;;
56629;SDS011;42502;40.732;-74.254;2023-02-24T06:52:56;0.55;;;0.40;;
56629;SDS011;42502;40.732;-74.254;2023-02-24T06:54:59;0.40;;;0.30;;
56629;SDS011;42502;40.732;-74.254;2023-02-24T06:57:03;1.02;;;0.38;;
56629;SDS011;42502;40.732;-74.254;2023-02-24T06:59:04;0.40;;;0.30;;
56629;SDS011;42502;40.732;-74.254;2023-02-24T07:01:18;0.50;;;0.40;;
56629;SDS011;42502;40.732;-74.254;2023-02-24T07:03:30;0.38;;;0.32;;
56629;SDS011;42502;40.732;-74.254;2023-02-24T07:05:43;1.20;;;0.40;;
56629;SDS011;42502;40.732;-74.254;2023-02-24T07:07:56;0.63;;;0.30;;
56629;SDS011;42502;40.732;-74.254;2023-02-24T07:09:57;0.73;;;0.45;;
56629;SDS011;42502;40.732;-74.254;2023-02-24T07:11:57;0.30;;;0.30;;
56629;SDS011;42502;40.732;-74.254;2023-02-24T07:14:01;0.75;;;0.40;;
56629;SDS011;42502;40.732;-74.254;2023-02-24T07:16:04;0.35;;;0.30;;
56629;SDS011;42502;40.732;-74.254;2023-02-24T07:18:12;0.68;;;0.38;;
56629;SDS011;42502;40.732;-74.254;2023-02-24T07:20:14;0.43;;;0.40;;
56629;SDS011;42502;40.732;-74.254;2023-02-24T07:22:24;0.68;;;0.40;;
56629;SDS011;42502;40.732;-74.254;2023-02-24T07:24:26;0.50;;;0.40;;
56629;SDS011;42502;40.732;-74.254;2023-02-24T07:26:32;0.40;;;0.40;;
56629;SDS011;42502;40.732;-74.254;2023-02-24T07:28:33;0.60;;;0.30;;
56629;SDS011;42502;40.732;-74.254;2023-02-24T07:30:34;1.05;;;0.32;;
56629;SDS011;42502;40.732;-74.254;2023-02-24T07:32:36;0.73;;;0.40;;
56629;SDS011;42502;40.732;-74.254;2023-02-24T07:34:37;0.50;;;0.30;;
56629;SDS011;42502;40.732;-74.254;2023-02-24T07:36:39;0.40;;;0.40;;
56629;SDS011;42502;40.732;-74.254;2023-02-24T07:38:50;0.30;;;0.30;;
56629;SDS011;42502;40.732;-74.254;2023-02-24T07:40:56;0.40;;;0.40;;
56629;SDS011;42502;40.732;-74.254;2023-02-24T07:42:57;0.75;;;0.40;;
56629;SDS011;42502;40.732;-74.254;2023-02-24T07:44:59;0.65;;;0.30;;
56629;SDS011;42502;40.732;-74.254;2023-02-24T07:47:00;0.75;;;0.40;;
56629;SDS011;42502;40.732;-74.254;2023-02-24T07:49:06;0.82;;;0.30;;
56629;SDS011;42502;40.732;-74.254;2023-02-24T07:51:14;0.32;;;0.32;;
56629;SDS011;42502;40.732;-74.254;2023-02-24T07:53:21;0.30;;;0.30;;
56629;SDS011;42502;40.732;-74.254;2023-02-24T07:55:21;1.45;;;0.40;;
56629;SDS011;42502;40.732;-74.254;2023-02-24T07:57:24;0.47;;;0.40;;
56629;SDS011;42502;40.732;-74.254;2023-02-24T07:59:32;0.68;;;0.30;;
56629;SDS011;42502;40.732;-74.254;2023-02-24T08:01:35;0.30;;;0.30;;
56629;SDS011;42502;40.732;-74.254;2023-02-24T08:03:39;0.40;;;0.30;;
56629;SDS011;42502;40.732;-74.254;2023-02-24T08:05:40;0.65;;;0.30;;
56629;SDS011;42502;40.732;-74.254;2023-02-24T08:07:43;3.13;;;0.40;;
56629;SDS011;42502;40.732;-74.254;2023-02-24T08:09:48;0.43;;;0.30;;
56629;SDS011;42502;40.732;-74.254;2023-02-24T08:12:13;1.67;;;0.32;;
56629;SDS011;42502;40.732;-74.254;2023-02-24T08:14:22;0.30;;;0.30;;
56629;SDS011;42502;40.732;-74.254;2023-02-24T08:16:23;0.30;;;0.20;;
56629;SDS011;42502;40.732;-74.254;2023-02-24T08:18:24;0.40;;;0.40;;
56629;SDS011;42502;40.732;-74.254;2023-02-24T08:20:28;0.68;;;0.30;;
56629;SDS011;42502;40.732;-74.254;2023-02-24T08:22:35;0.30;;;0.30;;
56629;SDS011;42502;40.732;-74.254;2023-02-24T08:24:37;0.30;;;0.30;;
56629;SDS011;42502;40.732;-74.254;2023-02-24T08:26:38;0.40;;;0.30;;
56629;SDS011;42502;40.732;-74.254;2023-02-24T08:28:43;0.50;;;0.30;;
56629;SDS011;42502;40.732;-74.254;2023-02-24T08:30:44;0.30;;;0.30;;
56629;SDS011;42502;40.732;-74.254;2023-02-24T08:32:45;0.63;;;0.30;;
56629;SDS011;42502;40.732;-74.254;2023-02-24T08:37:02;0.30;;;0.30;;
56629;SDS011;42502;40.732;-74.254;2023-02-24T08:39:03;0.22;;;0.20;;
56629;SDS011;42502;40.732;-74.254;2023-02-24T08:41:05;0.75;;;0.30;;
56629;SDS011;42502;40.732;-74.254;2023-02-24T08:43:11;0.35;;;0.25;;
56629;SDS011;42502;40.732;-74.254;2023-02-24T08:45:15;0.37;;;0.33;;
56629;SDS011;42502;40.732;-74.254;2023-02-24T08:47:16;0.40;;;0.30;;
56629;SDS011;42502;40.732;-74.254;2023-02-24T08:49:20;1.05;;;0.30;;
56629;SDS011;42502;40.732;-74.254;2023-02-24T08:53:29;0.45;;;0.32;;
56629;SDS011;42502;40.732;-74.254;2023-02-24T08:55:33;0.40;;;0.25;;
56629;SDS011;42502;40.732;-74.254;2023-02-24T08:57:38;0.30;;;0.30;;
56629;SDS011;42502;40.732;-74.254;2023-02-24T08:59:39;0.85;;;0.30;;
56629;SDS011;42502;40.732;-74.254;2023-02-24T09:01:48;0.30;;;0.22;;
56629;SDS011;42502;40.732;-74.254;2023-02-24T09:03:54;1.38;;;0.30;;
56629;SDS011;42502;40.732;-74.254;2023-02-24T09:05:58;0.30;;;0.22;;
56629;SDS011;42502;40.732;-74.254;2023-02-24T09:08:03;0.20;;;0.20;;
56629;SDS011;42502;40.732;-74.254;2023-02-24T09:10:05;0.30;;;0.22;;
56629;SDS011;42502;40.732;-74.254;2023-02-24T09:14:30;0.40;;;0.30;;
56629;SDS011;42502;40.732;-74.254;2023-02-24T09:16:38;0.30;;;0.30;;
56629;SDS011;42502;40.732;-74.254;2023-02-24T09:18:51;0.40;;;0.28;;
56629;SDS011;42502;40.732;-74.254;2023-02-24T09:21:12;0.40;;;0.30;;
56629;SDS011;42502;40.732;-74.254;2023-02-24T09:23:32;0.88;;;0.30;;
56629;SDS011;42502;40.732;-74.254;2023-02-24T09:25:45;0.40;;;0.30;;
56629;SDS011;42502;40.732;-74.254;2023-02-24T09:29:55;1.58;;;0.20;;
56629;SDS011;42502;40.732;-74.254;2023-02-24T09:32:07;0.30;;;0.20;;
56629;SDS011;42502;40.732;-74.254;2023-02-24T09:34:13;0.30;;;0.30;;
56629;SDS011;42502;40.732;-74.254;2023-02-24T09:36:29;0.35;;;0.25;;
56629;SDS011;42502;40.732;-74.254;2023-02-24T09:38:50;0.30;;;0.25;;
56629;SDS011;42502;40.732;-74.254;2023-02-24T09:40:58;0.75;;;0.30;;
56629;SDS011;42502;40.732;-74.254;2023-02-24T09:43:14;0.60;;;0.30;;
56629;SDS011;42502;40.732;-74.254;2023-02-24T09:45:23;0.88;;;0.30;;
56629;SDS011;42502;40.732;-74.254;2023-02-24T09:47:49;0.60;;;0.30;;
56629;SDS011;42502;40.732;-74.254;2023-02-24T09:50:02;0.90;;;0.35;;
56629;SDS011;42502;40.732;-74.254;2023-02-24T09:52:37;1.05;;;0.25;;
56629;SDS011;42502;40.732;-74.254;2023-02-24T09:54:41;0.93;;;0.38;;
56629;SDS011;42502;40.732;-74.254;2023-02-24T09:57:10;0.68;;;0.22;;
56629;SDS011;42502;40.732;-74.254;2023-02-24T09:59:45;1.73;;;0.25;;
56629;SDS011;42502;40.732;-74.254;2023-02-24T10:02:29;1.50;;;0.30;;
56629;SDS011;42502;40.732;-74.254;2023-02-24T10:07:30;0.68;;;0.30;;
56629;SDS011;42502;40.732;-74.254;2023-02-24T10:11:44;0.90;;;0.30;;
56629;SDS011;42502;40.732;-74.254;2023-02-24T10:13:53;0.73;;;0.20;;
56629;SDS011;42502;40.732;-74.254;2023-02-24T10:16:00;1.10;;;0.35;;
56629;SDS011;42502;40.732;-74.254;2023-02-24T10:18:15;0.40;;;0.30;;
56629;SDS011;42502;40.732;-74.254;2023-02-24T10:20:32;0.80;;;0.40;;
56629;SDS011;42502;40.732;-74.254;2023-02-24T10:22:45;1.42;;;0.30;;
56629;SDS011;42502;40.732;-74.254;2023-02-24T10:25:02;1.63;;;0.30;;
56629;SDS011;42502;40.732;-74.254;2023-02-24T10:27:13;0.52;;;0.30;;
56629;SDS011;42502;40.732;-74.254;2023-02-24T10:31:48;0.40;;;0.28;;
56629;SDS011;42502;40.732;-74.254;2023-02-24T10:34:01;0.80;;;0.30;;
56629;SDS011;42502;40.732;-74.254;2023-02-24T10:36:12;1.25;;;0.40;;
56629;SDS011;42502;40.732;-74.254;2023-02-24T10:38:17;2.17;;;0.30;;
56629;SDS011;42502;40.732;-74.254;2023-02-24T10:40:18;0.50;;;0.30;;
56629;SDS011;42502;40.732;-74.254;2023-02-24T10:42:42;1.10;;;0.40;;
56629;SDS011;42502;40.732;-74.254;2023-02-24T10:44:47;1.30;;;0.38;;
56629;SDS011;42502;40.732;-74.254;2023-02-24T10:47:11;1.35;;;0.22;;
56629;SDS011;42502;40.732;-74.254;2023-02-24T10:49:12;1.30;;;0.30;;
56629;SDS011;42502;40.732;-74.254;2023-02-24T10:51:16;0.50;;;0.40;;
56629;SDS011;42502;40.732;-74.254;2023-02-24T10:53:29;0.50;;;0.30;;
56629;SDS011;42502;40.732;-74.254;2023-02-24T10:55:40;0.80;;;0.30;;
56629;SDS011;42502;40.732;-74.254;2023-02-24T10:57:44;0.50;;;0.30;;
56629;SDS011;42502;40.732;-74.254;2023-02-24T10:59:53;0.52;;;0.20;;
56629;SDS011;42502;40.732;-74.254;2023-02-24T11:02:17;0.30;;;0.30;;
56629;SDS011;42502;40.732;-74.254;2023-02-24T11:04:36;0.57;;;0.40;;
56629;SDS011;42502;40.732;-74.254;2023-02-24T11:07:09;0.35;;;0.30;;
56629;SDS011;42502;40.732;-74.254;2023-02-24T11:11:33;2.85;;;0.30;;
56629;SDS011;42502;40.732;-74.254;2023-02-24T11:13:55;1.73;;;0.40;;
56629;SDS011;42502;40.732;-74.254;2023-02-24T11:16:20;1.02;;;0.40;;
56629;SDS011;42502;40.732;-74.254;2023-02-24T11:18:54;1.30;;;0.30;;
56629;SDS011;42502;40.732;-74.254;2023-02-24T11:23:11;0.47;;;0.40;;
56629;SDS011;42502;40.732;-74.254;2023-02-24T11:25:20;0.63;;;0.38;;
56629;SDS011;42502;40.732;-74.254;2023-02-24T11:27:33;0.47;;;0.32;;
56629;SDS011;42502;40.732;-74.254;2023-02-24T11:29:47;0.77;;;0.40;;
56629;SDS011;42502;40.732;-74.254;2023-02-24T11:41:34;0.50;;;0.30;;
56629;SDS011;42502;40.732;-74.254;2023-02-24T11:43:42;1.17;;;0.30;;
56629;SDS011;42502;40.732;-74.254;2023-02-24T11:45:53;0.73;;;0.40;;
56629;SDS011;42502;40.732;-74.254;2023-02-24T11:47:58;2.58;;;0.30;;
56629;SDS011;42502;40.732;-74.254;2023-02-24T11:50:18;2.08;;;0.28;;
56629;SDS011;42502;40.732;-74.254;2023-02-24T11:54:51;4.90;;;0.50;;
56629;SDS011;42502;40.732;-74.254;2023-02-24T11:56:56;0.47;;;0.40;;
56629;SDS011;42502;40.732;-74.254;2023-02-24T12:06:04;2.33;;;0.40;;
56629;SDS011;42502;40.732;-74.254;2023-02-24T12:10:27;0.70;;;0.40;;
56629;SDS011;42502;40.732;-74.254;2023-02-24T12:14:49;0.95;;;0.50;;
56629;SDS011;42502;40.732;-74.254;2023-02-24T12:17:01;1.08;;;0.40;;
56629;SDS011;42502;40.732;-74.254;2023-02-24T12:19:31;0.40;;;0.40;;
56629;SDS011;42502;40.732;-74.254;2023-02-24T12:21:37;1.45;;;0.50;;
56629;SDS011;42502;40.732;-74.254;2023-02-24T12:23:44;3.42;;;0.50;;
56629;SDS011;42502;40.732;-74.254;2023-02-24T12:28:18;0.63;;;0.47;;
56629;SDS011;42502;40.732;-74.254;2023-02-24T12:34:04;1.73;;;0.50;;
56629;SDS011;42502;40.732;-74.254;2023-02-24T12:36:31;11.93;;;0.50;;
56629;SDS011;42502;40.732;-74.254;2023-02-24T12:40:55;6.13;;;0.50;;
56629;SDS011;42502;40.732;-74.254;2023-02-24T12:43:21;2.22;;;0.47;;
56629;SDS011;42502;40.732;-74.254;2023-02-24T12:52:30;1.40;;;0.68;;
56629;SDS011;42502;40.732;-74.254;2023-02-24T12:57:01;3.05;;;0.60;;
56629;SDS011;42502;40.732;-74.254;2023-02-24T12:59:06;2.00;;;0.60;;
56629;SDS011;42502;40.732;-74.254;2023-02-24T13:03:47;2.95;;;0.40;;
56629;SDS011;42502;40.732;-74.254;2023-02-24T13:06:15;2.85;;;0.50;;
56629;SDS011;42502;40.732;-74.254;2023-02-24T13:08:41;2.20;;;0.50;;
56629;SDS011;42502;40.732;-74.254;2023-02-24T13:10:46;2.00;;;0.70;;
56629;SDS011;42502;40.732;-74.254;2023-02-24T13:12:59;6.07;;;0.57;;
56629;SDS011;42502;40.732;-74.254;2023-02-24T13:15:19;2.75;;;0.50;;
56629;SDS011;42502;40.732;-74.254;2023-02-24T13:17:25;4.35;;;0.60;;
56629;SDS011;42502;40.732;-74.254;2023-02-24T13:21:28;2.30;;;0.50;;
56629;SDS011;42502;40.732;-74.254;2023-02-24T13:23:29;8.20;;;0.70;;
56629;SDS011;42502;40.732;-74.254;2023-02-24T13:27:40;1.30;;;0.52;;
56629;SDS011;42502;40.732;-74.254;2023-02-24T13:29:46;3.08;;;0.50;;
56629;SDS011;42502;40.732;-74.254;2023-02-24T13:31:50;3.30;;;0.70;;
56629;SDS011;42502;40.732;-74.254;2023-02-24T13:33:52;4.65;;;0.90;;
56629;SDS011;42502;40.732;-74.254;2023-02-24T13:36:07;4.40;;;0.80;;
56629;SDS011;42502;40.732;-74.254;2023-02-24T13:40:30;4.45;;;0.70;;
56629;SDS011;42502;40.732;-74.254;2023-02-24T13:42:31;7.85;;;0.90;;
56629;SDS011;42502;40.732;-74.254;2023-02-24T13:44:31;6.43;;;0.75;;
56629;SDS011;42502;40.732;-74.254;2023-02-24T13:46:40;6.68;;;1.05;;
56629;SDS011;42502;40.732;-74.254;2023-02-24T13:53:35;15.98;;;1.40;;
56629;SDS011;42502;40.732;-74.254;2023-02-24T14:02:45;16.15;;;1.95;;
56629;SDS011;42502;40.732;-74.254;2023-02-24T14:04:51;14.90;;;1.60;;
56629;SDS011;42502;40.732;-74.254;2023-02-24T14:06:55;6.53;;;1.30;;
56629;SDS011;42502;40.732;-74.254;2023-02-24T14:09:11;8.77;;;1.85;;
56629;SDS011;42502;40.732;-74.254;2023-02-24T14:11:17;9.38;;;1.60;;
56629;SDS011;42502;40.732;-74.254;2023-02-24T14:13:22;13.48;;;1.63;;
56629;SDS011;42502;40.732;-74.254;2023-02-24T14:15:29;6.72;;;1.33;;
56629;SDS011;42502;40.732;-74.254;2023-02-24T14:17:32;6.32;;;1.20;;
56629;SDS011;42502;40.732;-74.254;2023-02-24T14:19:35;5.15;;;1.35;;